LICT/TPS METAR and TAF weather

Enter ICAO airport designator
Station Type Date Time Source
LICT METAR 2021/04/18 02:55 UTC NOAA

LICT 180255Z 14005KT 9999 -RA SCT020 SCT030 12/11 Q1014


Station Type Date Time Source
LICT Decoded METAR 2021/04/18 02:55 UTC NOAA

Trapani / Birgi, Italy (LICT) 37-55N 012-30E 14M
Apr 17, 2021 - 10:55 PM EDT / 2021.04.18 0255 UTC
Wind: from the SE (140 degrees) at 6 MPH (5 KT):0
Visibility: greater than 7 mile(s):0
Sky conditions: partly cloudy
Weather: light rain
Temperature: 53 F (12 C)
Dew Point: 51 F (11 C)
Relative Humidity: 93%
Pressure (altimeter): 29.94 in. Hg (1014 hPa)
ob: LICT 180255Z 14005KT 9999 -RA SCT020 SCT030 12/11 Q1014
cycle: 3

Station Type Date Time Source
LICT TAF 2021/02/10 12:24 UTC NOAA

TAF TAF LICT 101100Z 1012/1024 18015KT CAVOK
BECMG 1015/1017 7000 RA BKN018
BECMG 1018/1020 26020G32KT
TEMPO 1020/1024 27025G40KT TSRA SCT015CB BKN018

Example: see airport list